createdAt,value
2023-03-11T00:00:55.293Z,71.30
2023-03-11T00:06:00.327Z,70.00
2023-03-11T00:08:28.413Z,70.80
2023-03-11T00:10:55.910Z,71.20
2023-03-11T00:13:22.643Z,69.60
2023-03-11T00:15:50.382Z,69.60
2023-03-11T00:18:17.649Z,69.80
2023-03-11T00:20:45.002Z,68.70
2023-03-11T00:23:12.503Z,68.50
2023-03-11T00:25:40.961Z,68.60
2023-03-11T00:28:07.633Z,69.40
2023-03-11T00:30:34.596Z,70.10
2023-03-11T00:33:01.470Z,70.20
2023-03-11T00:35:29.307Z,70.40
2023-03-11T00:37:57.087Z,70.30
2023-03-11T00:40:25.492Z,71.10
2023-03-11T00:42:52.746Z,69.90
2023-03-11T00:45:19.677Z,69.40
2023-03-11T00:47:47.872Z,70.30
2023-03-11T00:50:19.464Z,71.10
2023-03-11T00:52:47.192Z,69.90
2023-03-11T00:55:15.461Z,70.30
2023-03-11T00:57:42.513Z,69.40
2023-03-11T01:00:11.988Z,69.80
2023-03-11T01:02:38.666Z,69.30
2023-03-11T01:05:05.883Z,70.20
2023-03-11T01:07:33.638Z,69.70
2023-03-11T01:10:00.943Z,70.00
2023-03-11T01:12:27.578Z,70.20
2023-03-11T01:14:54.571Z,70.30
2023-03-11T01:17:22.228Z,69.70
2023-03-11T01:19:52.037Z,70.40
2023-03-11T01:22:18.789Z,71.00
2023-03-11T01:24:46.046Z,70.90
2023-03-11T01:27:13.230Z,71.00
2023-03-11T01:29:39.819Z,70.70
2023-03-11T01:32:07.150Z,71.10
2023-03-11T01:34:36.010Z,70.90
2023-03-11T01:37:03.495Z,71.00
2023-03-11T01:39:31.405Z,71.10
2023-03-11T01:41:58.402Z,70.40
2023-03-11T01:44:25.016Z,71.10
2023-03-11T01:46:51.900Z,71.30
2023-03-11T01:49:19.221Z,71.20
2023-03-11T01:51:49.166Z,71.20
2023-03-11T01:54:18.372Z,71.50
2023-03-11T01:56:46.375Z,71.20
2023-03-11T01:59:15.107Z,71.50
2023-03-11T02:01:48.527Z,70.50
2023-03-11T02:04:15.533Z,70.70
2023-03-11T02:06:42.589Z,71.10
2023-03-11T02:09:10.304Z,71.10
2023-03-11T02:11:38.241Z,71.30
2023-03-11T02:14:09.104Z,71.50
2023-03-11T02:16:38.059Z,71.30
2023-03-11T02:19:15.551Z,70.60
2023-03-11T02:21:42.431Z,70.10
2023-03-11T02:24:27.775Z,70.10
2023-03-11T02:26:58.124Z,70.40
2023-03-11T02:29:26.868Z,70.10
2023-03-11T02:31:54.667Z,70.40
2023-03-11T02:34:23.878Z,70.30
2023-03-11T02:36:50.568Z,70.90
2023-03-11T02:39:28.673Z,71.20
2023-03-11T02:41:55.515Z,71.30
2023-03-11T02:44:22.457Z,71.30
2023-03-11T02:46:49.935Z,71.40
2023-03-11T02:49:17.036Z,71.50
2023-03-11T02:51:43.772Z,72.00
2023-03-11T02:54:16.706Z,72.20
2023-03-11T02:56:43.981Z,71.60
2023-03-11T02:59:10.900Z,71.50
2023-03-11T03:01:37.598Z,71.40
2023-03-11T03:04:04.599Z,71.90
2023-03-11T03:06:32.437Z,72.00
2023-03-11T03:08:59.787Z,71.90
2023-03-11T03:11:27.108Z,71.80
2023-03-11T03:13:53.768Z,71.80
2023-03-11T03:16:23.288Z,72.20
2023-03-11T03:18:51.587Z,72.30
2023-03-11T03:21:20.431Z,72.20
2023-03-11T03:23:47.124Z,72.50
2023-03-11T03:26:14.557Z,72.20
2023-03-11T03:28:41.608Z,71.40
2023-03-11T03:31:09.399Z,71.40
2023-03-11T03:33:37.083Z,71.30
2023-03-11T03:36:12.055Z,71.50
2023-03-11T03:38:46.212Z,71.00
2023-03-11T03:41:16.183Z,71.20
2023-03-11T03:43:44.061Z,71.40
2023-03-11T03:46:10.949Z,71.20
2023-03-11T03:48:37.908Z,71.10
2023-03-11T03:51:06.791Z,70.90
2023-03-11T03:53:34.790Z,70.90
2023-03-11T03:56:09.008Z,71.20
2023-03-11T03:58:37.727Z,71.20
2023-03-11T04:01:05.356Z,71.40
2023-03-11T04:03:32.377Z,71.40
2023-03-11T04:06:06.672Z,70.80
2023-03-11T04:08:33.625Z,70.40
2023-03-11T04:11:00.376Z,71.00
2023-03-11T04:13:27.132Z,70.20
2023-03-11T04:15:54.119Z,69.90
2023-03-11T04:18:23.173Z,70.00
2023-03-11T04:20:50.020Z,70.40
2023-03-11T04:23:16.818Z,70.90
2023-03-11T04:25:43.519Z,71.20
2023-03-11T04:28:10.447Z,71.10
2023-03-11T04:30:37.448Z,71.30
2023-03-11T04:33:04.435Z,71.60
2023-03-11T04:35:31.442Z,72.00
2023-03-11T04:37:58.180Z,71.50
2023-03-11T04:40:25.037Z,71.70
2023-03-11T04:42:53.181Z,71.80
2023-03-11T04:45:20.072Z,71.70
2023-03-11T04:47:50.781Z,71.80
2023-03-11T04:50:19.033Z,71.70
2023-03-11T04:52:48.790Z,72.30
2023-03-11T04:55:16.075Z,72.60
2023-03-11T04:57:45.508Z,72.40
2023-03-11T05:00:12.842Z,72.40
2023-03-11T05:02:40.076Z,72.60
2023-03-11T05:05:08.356Z,73.20
2023-03-11T05:07:36.649Z,73.10
2023-03-11T05:10:04.658Z,73.20
2023-03-11T05:12:34.544Z,72.80
2023-03-11T05:15:02.713Z,73.00
2023-03-11T05:17:29.693Z,71.90
2023-03-11T05:19:58.007Z,72.20
2023-03-11T05:22:24.755Z,72.10
2023-03-11T05:24:52.193Z,72.40
2023-03-11T05:27:19.811Z,72.30
2023-03-11T05:29:47.358Z,73.10
2023-03-11T05:32:14.697Z,72.10
2023-03-11T05:34:41.712Z,71.90
2023-03-11T05:37:08.504Z,72.20
2023-03-11T05:39:35.527Z,72.20
2023-03-11T05:42:06.028Z,71.80
2023-03-11T05:44:33.075Z,72.30
2023-03-11T05:47:00.281Z,72.10
2023-03-11T05:49:27.280Z,72.00
2023-03-11T05:51:58.070Z,72.50
2023-03-11T05:54:25.674Z,71.90
2023-03-11T05:56:54.493Z,72.60
2023-03-11T05:59:22.222Z,72.20
2023-03-11T06:01:50.157Z,72.10
2023-03-11T06:04:20.424Z,71.00
2023-03-11T06:06:48.108Z,71.80
2023-03-11T06:09:15.533Z,70.90
2023-03-11T06:11:42.699Z,70.00
2023-03-11T06:14:11.293Z,70.60
2023-03-11T06:16:38.205Z,70.30
2023-03-11T06:19:09.339Z,70.20
2023-03-11T06:21:43.275Z,70.70
2023-03-11T06:24:10.266Z,70.30
2023-03-11T06:26:37.029Z,71.10
2023-03-11T06:29:06.401Z,71.20
2023-03-11T06:31:35.728Z,71.30
2023-03-11T06:34:03.224Z,71.40
2023-03-11T06:36:33.284Z,71.70
2023-03-11T06:39:00.336Z,71.60
2023-03-11T06:41:27.281Z,70.80
2023-03-11T06:43:59.972Z,71.70
2023-03-11T06:46:26.890Z,71.70
2023-03-11T06:48:55.592Z,71.60
2023-03-11T06:51:22.470Z,71.20
2023-03-11T06:53:54.911Z,70.70
2023-03-11T06:56:22.941Z,70.60
2023-03-11T06:58:51.974Z,70.90
2023-03-11T07:01:20.080Z,71.00
2023-03-11T07:03:47.502Z,70.20
2023-03-11T07:06:20.374Z,69.20
2023-03-11T07:08:48.387Z,66.30
2023-03-11T07:11:26.406Z,66.50
2023-03-11T07:13:54.119Z,65.40
2023-03-11T07:16:26.153Z,66.70
2023-03-11T07:19:01.062Z,64.60
2023-03-11T07:21:27.998Z,65.00
2023-03-11T07:23:56.118Z,64.80
2023-03-11T07:26:23.466Z,64.00
2023-03-11T07:28:50.397Z,62.80
2023-03-11T07:31:19.945Z,62.50
2023-03-11T07:33:47.167Z,63.60
2023-03-11T07:36:15.514Z,61.10
2023-03-11T07:38:42.296Z,61.90
2023-03-11T07:41:11.464Z,63.70
2023-03-11T07:43:40.005Z,61.60
2023-03-11T07:46:17.777Z,61.90
2023-03-11T07:48:47.474Z,62.60
2023-03-11T07:51:15.695Z,62.00
2023-03-11T07:53:42.498Z,61.70
2023-03-11T07:56:13.801Z,62.20
2023-03-11T07:58:40.918Z,62.00
2023-03-11T08:01:12.304Z,63.20
2023-03-11T08:03:42.225Z,61.30
2023-03-11T08:06:30.119Z,60.80
2023-03-11T08:09:01.832Z,60.10
2023-03-11T08:11:32.034Z,59.40
2023-03-11T08:14:00.277Z,60.40
2023-03-11T08:16:28.173Z,60.10
2023-03-11T08:18:57.111Z,62.40
2023-03-11T08:21:25.355Z,59.60
2023-03-11T08:24:01.758Z,61.60
2023-03-11T08:26:29.186Z,60.40
2023-03-11T08:29:00.797Z,59.30
2023-03-11T08:31:29.256Z,60.10
2023-03-11T08:36:32.517Z,60.00
2023-03-11T08:38:59.342Z,59.60
2023-03-11T08:41:26.260Z,58.80
2023-03-11T08:43:53.033Z,57.90
2023-03-11T08:46:24.724Z,58.20
2023-03-11T08:48:51.483Z,57.40
2023-03-11T08:51:18.338Z,59.60
2023-03-11T08:53:45.122Z,56.40
2023-03-11T08:56:11.853Z,56.50
2023-03-11T08:58:38.637Z,57.80
2023-03-11T09:01:06.169Z,56.20
2023-03-11T09:03:33.742Z,58.00
2023-03-11T09:06:01.770Z,56.70
2023-03-11T09:08:29.042Z,57.00
2023-03-11T09:10:55.675Z,55.70
2023-03-11T09:13:22.617Z,54.30
2023-03-11T09:15:49.920Z,55.20
2023-03-11T09:18:16.924Z,53.20
2023-03-11T09:20:44.404Z,55.00
2023-03-11T09:23:11.841Z,56.90
2023-03-11T09:25:40.020Z,57.20
2023-03-11T09:28:06.733Z,56.40
2023-03-11T09:30:37.555Z,52.60
2023-03-11T09:33:04.224Z,52.60
2023-03-11T09:35:33.711Z,53.40
2023-03-11T09:38:01.698Z,52.00
2023-03-11T09:43:24.057Z,52.70
2023-03-11T09:45:53.809Z,52.20
2023-03-11T09:48:32.311Z,52.00
2023-03-11T09:51:11.985Z,52.90
2023-03-11T09:53:44.157Z,53.80
2023-03-11T09:56:13.498Z,52.90
2023-03-11T09:58:50.715Z,54.00
2023-03-11T10:01:24.027Z,50.00
2023-03-11T10:03:56.745Z,49.50
2023-03-11T10:06:25.026Z,50.10
2023-03-11T10:08:54.894Z,50.10
2023-03-11T10:14:02.768Z,50.80
2023-03-11T10:16:35.436Z,49.80
2023-03-11T10:19:11.763Z,50.20
2023-03-11T10:21:47.731Z,48.60
2023-03-11T10:24:19.512Z,47.30
2023-03-11T10:26:52.214Z,49.30
2023-03-11T10:29:36.213Z,46.70
2023-03-11T10:32:07.353Z,48.80
2023-03-11T10:34:38.414Z,49.30
2023-03-11T10:37:10.259Z,50.00
2023-03-11T10:42:15.528Z,50.40
2023-03-11T10:44:44.446Z,50.10
2023-03-11T10:47:18.773Z,49.40
2023-03-11T10:49:45.801Z,49.60
2023-03-11T10:52:15.219Z,49.70
2023-03-11T10:54:46.591Z,49.00
2023-03-11T10:57:22.515Z,49.00
2023-03-11T10:59:52.039Z,48.20
2023-03-11T11:02:35.185Z,46.50
2023-03-11T11:05:23.629Z,47.00
2023-03-11T11:08:10.544Z,48.30
2023-03-11T11:10:37.880Z,45.30
2023-03-11T11:13:14.073Z,46.00
2023-03-11T11:15:42.446Z,49.10
2023-03-11T11:18:20.880Z,48.30
2023-03-11T11:21:03.521Z,45.70
2023-03-11T11:23:36.248Z,45.10
2023-03-11T11:26:07.187Z,47.00
2023-03-11T11:28:35.497Z,44.50
2023-03-11T11:31:03.938Z,46.60
2023-03-11T11:33:38.858Z,47.70
2023-03-11T11:36:06.400Z,48.20
2023-03-11T11:38:33.388Z,47.00
2023-03-11T11:41:02.536Z,47.90
2023-03-11T11:43:51.021Z,44.50
2023-03-11T11:46:42.268Z,46.70
2023-03-11T11:49:17.373Z,46.90
2023-03-11T11:51:59.706Z,45.00
2023-03-11T11:54:29.719Z,46.70
2023-03-11T11:56:56.745Z,46.10
2023-03-11T11:59:31.188Z,45.30
2023-03-11T12:02:01.180Z,46.00
2023-03-11T12:04:53.132Z,46.20
2023-03-11T12:07:32.160Z,45.30
2023-03-11T12:10:22.761Z,44.30
2023-03-11T12:12:59.133Z,44.60
2023-03-11T12:15:36.871Z,47.40
2023-03-11T12:18:06.125Z,46.60
2023-03-11T12:20:45.537Z,47.50
2023-03-11T12:23:12.135Z,45.30
2023-03-11T12:25:42.117Z,47.50
2023-03-11T12:31:04.798Z,46.80
2023-03-11T12:33:37.448Z,44.70
2023-03-11T12:36:04.706Z,45.30
2023-03-11T12:38:37.696Z,44.90
2023-03-11T12:41:13.826Z,46.10
2023-03-11T12:43:41.524Z,46.70
2023-03-11T12:46:17.592Z,44.90
2023-03-11T12:49:07.314Z,46.30
2023-03-11T12:51:39.328Z,46.00
2023-03-11T12:54:29.309Z,43.90
2023-03-11T12:56:59.212Z,43.80
2023-03-11T13:02:27.012Z,44.10
2023-03-11T13:04:59.769Z,43.10
2023-03-11T13:07:36.659Z,43.00
2023-03-11T13:10:12.027Z,43.00
2023-03-11T13:12:46.841Z,43.50
2023-03-11T13:15:23.006Z,43.20
2023-03-11T13:18:16.644Z,44.20
2023-03-11T13:20:45.657Z,42.70
2023-03-11T13:23:14.860Z,44.00
2023-03-11T13:26:05.165Z,43.80
2023-03-11T13:31:34.623Z,44.20
2023-03-11T13:34:21.232Z,42.70
2023-03-11T13:36:57.410Z,43.30
2023-03-11T13:39:47.021Z,42.30
2023-03-11T13:42:34.075Z,43.30
2023-03-11T13:45:05.196Z,44.30
2023-03-11T13:47:33.562Z,44.20
2023-03-11T13:50:09.472Z,43.40
2023-03-11T13:52:54.204Z,44.00
2023-03-11T13:58:14.366Z,42.70
2023-03-11T14:00:48.277Z,41.80
2023-03-11T14:03:18.506Z,41.60
2023-03-11T14:05:48.849Z,43.60
2023-03-11T14:08:29.954Z,44.80
2023-03-11T14:11:01.323Z,45.40
2023-03-11T14:13:30.163Z,44.20
2023-03-11T14:16:05.934Z,47.10
2023-03-11T14:18:34.162Z,45.10
2023-03-11T14:23:50.156Z,42.90
2023-03-11T14:26:18.534Z,43.50
2023-03-11T14:28:48.106Z,44.10
2023-03-11T14:31:22.678Z,42.80
2023-03-11T14:33:57.181Z,45.10
2023-03-11T14:36:23.840Z,43.30
2023-03-11T14:38:50.442Z,45.50
2023-03-11T14:41:17.509Z,45.50
2023-03-11T14:43:45.923Z,44.90
2023-03-11T14:46:18.310Z,45.10
2023-03-11T14:48:47.252Z,45.00
2023-03-11T14:51:16.730Z,43.70
2023-03-11T14:53:47.008Z,43.80
2023-03-11T14:56:17.648Z,43.70
2023-03-11T14:58:49.207Z,43.10
2023-03-11T15:01:24.033Z,43.10
2023-03-11T15:03:53.934Z,43.40
2023-03-11T15:06:23.176Z,45.30
2023-03-11T15:08:54.787Z,43.40
2023-03-11T15:11:25.796Z,45.20
2023-03-11T15:13:53.075Z,45.90
2023-03-11T15:16:22.644Z,44.40
2023-03-11T15:18:49.583Z,44.60
2023-03-11T15:21:17.942Z,44.70
2023-03-11T15:23:46.179Z,43.00
2023-03-11T15:26:25.624Z,45.30
2023-03-11T15:29:01.898Z,44.40
2023-03-11T15:31:33.019Z,44.40
2023-03-11T15:34:12.026Z,44.60
2023-03-11T15:36:43.991Z,45.90
2023-03-11T15:39:13.785Z,45.30
2023-03-11T15:41:42.526Z,45.00
2023-03-11T15:44:41.776Z,45.10
2023-03-11T15:47:13.182Z,44.70
2023-03-11T15:49:39.922Z,45.20
2023-03-11T15:52:06.879Z,46.60
2023-03-11T15:54:33.511Z,45.50
2023-03-11T15:57:01.242Z,44.40
2023-03-11T15:59:28.386Z,45.40
2023-03-11T16:01:55.381Z,46.50
2023-03-11T16:04:22.125Z,45.70
2023-03-11T16:06:59.435Z,46.10
2023-03-11T16:09:31.558Z,45.70
2023-03-11T16:11:59.748Z,46.40
2023-03-11T16:14:27.553Z,47.50
2023-03-11T16:16:54.143Z,48.50
2023-03-11T16:19:20.674Z,47.80
2023-03-11T16:21:50.153Z,49.00
2023-03-11T16:24:20.911Z,49.10
2023-03-11T16:26:47.982Z,49.30
2023-03-11T16:29:19.255Z,50.30
2023-03-11T16:31:46.606Z,51.40
2023-03-11T16:34:13.284Z,50.50
2023-03-11T16:36:40.109Z,50.70
2023-03-11T16:39:06.687Z,50.70
2023-03-11T16:41:40.968Z,51.30
2023-03-11T16:44:09.623Z,50.80
2023-03-11T16:46:36.775Z,51.30
2023-03-11T16:49:05.378Z,51.50
2023-03-11T16:51:32.310Z,52.70
2023-03-11T16:53:59.447Z,51.90
2023-03-11T16:56:26.439Z,52.30
2023-03-11T16:58:54.533Z,53.00
2023-03-11T17:01:22.460Z,52.70
2023-03-11T17:03:50.750Z,53.10
2023-03-11T17:06:19.847Z,52.50
2023-03-11T17:08:51.376Z,53.20
2023-03-11T17:11:19.425Z,53.80
2023-03-11T17:13:56.721Z,53.60
2023-03-11T17:16:30.200Z,53.40
2023-03-11T17:18:59.465Z,54.70
2023-03-11T17:21:26.641Z,55.10
2023-03-11T17:23:55.470Z,54.70
2023-03-11T17:26:23.152Z,55.60
2023-03-11T17:28:49.790Z,56.30
2023-03-11T17:31:24.027Z,56.20
2023-03-11T17:33:53.127Z,56.10
2023-03-11T17:36:20.077Z,55.90
2023-03-11T17:38:47.312Z,56.30
2023-03-11T17:41:16.077Z,56.50
2023-03-11T17:43:43.038Z,55.70
2023-03-11T17:46:16.999Z,55.80
2023-03-11T17:48:45.127Z,55.90
2023-03-11T17:51:13.342Z,56.00
2023-03-11T17:53:40.554Z,57.30
2023-03-11T17:56:07.928Z,57.20
2023-03-11T17:58:37.701Z,57.30
2023-03-11T18:01:08.744Z,57.60
2023-03-11T18:03:35.419Z,58.10
2023-03-11T18:06:04.287Z,58.30
2023-03-11T18:08:33.714Z,58.30
2023-03-11T18:11:05.376Z,58.70
2023-03-11T18:13:32.811Z,58.30
2023-03-11T18:16:05.041Z,58.50
2023-03-11T18:18:32.268Z,58.50
2023-03-11T18:21:02.424Z,59.10
2023-03-11T18:23:29.641Z,60.50
2023-03-11T18:25:56.531Z,59.60
2023-03-11T18:28:23.380Z,59.00
2023-03-11T18:30:50.538Z,59.20
2023-03-11T18:33:17.143Z,58.60
2023-03-11T18:35:43.914Z,58.80
2023-03-11T18:38:11.549Z,58.40
2023-03-11T18:40:38.392Z,58.10
2023-03-11T18:43:05.078Z,57.50
2023-03-11T18:45:31.912Z,57.80
2023-03-11T18:47:59.135Z,57.50
2023-03-11T18:50:25.751Z,57.40
2023-03-11T18:52:52.636Z,57.60
2023-03-11T18:55:20.691Z,57.80
2023-03-11T18:57:47.664Z,58.20
2023-03-11T19:00:16.717Z,57.70
2023-03-11T19:02:49.810Z,58.00
2023-03-11T19:05:16.771Z,58.10
2023-03-11T19:07:43.907Z,58.20
2023-03-11T19:10:12.302Z,59.60
2023-03-11T19:12:40.245Z,58.80
2023-03-11T19:15:07.194Z,58.90
2023-03-11T19:17:34.103Z,59.00
2023-03-11T19:20:00.968Z,58.70
2023-03-11T19:22:28.140Z,58.60
2023-03-11T19:24:54.719Z,59.00
2023-03-11T19:27:21.379Z,60.50
2023-03-11T19:29:48.224Z,61.00
2023-03-11T19:32:15.116Z,61.50
2023-03-11T19:34:41.840Z,63.20
2023-03-11T19:37:10.719Z,62.20
2023-03-11T19:39:37.398Z,61.70
2023-03-11T19:42:04.242Z,61.40
2023-03-11T19:44:30.830Z,61.60
2023-03-11T19:46:57.596Z,60.90
2023-03-11T19:49:24.364Z,61.40
2023-03-11T19:51:53.251Z,61.60
2023-03-11T19:54:20.032Z,61.80
2023-03-11T19:56:50.209Z,62.50
2023-03-11T19:59:17.339Z,63.60
2023-03-11T20:01:44.094Z,62.70
2023-03-11T20:04:11.370Z,62.80
2023-03-11T20:06:38.391Z,63.10
2023-03-11T20:09:06.782Z,63.30
2023-03-11T20:11:34.095Z,63.70
2023-03-11T20:14:01.334Z,64.00
2023-03-11T20:16:28.264Z,63.60
2023-03-11T20:18:55.055Z,63.90
2023-03-11T20:21:21.729Z,64.20
2023-03-11T20:23:49.053Z,63.90
2023-03-11T20:26:19.205Z,64.20
2023-03-11T20:28:45.998Z,64.60
2023-03-11T20:31:15.558Z,64.10
2023-03-11T20:33:42.633Z,63.90
2023-03-11T20:36:10.921Z,63.50
2023-03-11T20:38:37.667Z,64.00
2023-03-11T20:41:06.406Z,63.80
2023-03-11T20:43:33.369Z,64.00
2023-03-11T20:46:00.818Z,64.60
2023-03-11T20:48:30.379Z,65.80
2023-03-11T20:51:01.532Z,69.20
2023-03-11T20:53:29.698Z,70.70
2023-03-11T20:56:00.325Z,70.10
2023-03-11T20:58:27.042Z,69.00
2023-03-11T21:00:53.672Z,68.40
2023-03-11T21:03:20.464Z,68.30
2023-03-11T21:05:47.531Z,67.60
2023-03-11T21:08:14.304Z,69.00
2023-03-11T21:10:41.014Z,68.90
2023-03-11T21:13:08.013Z,68.90
2023-03-11T21:15:35.312Z,67.80
2023-03-11T21:18:02.631Z,67.10
2023-03-11T21:20:29.347Z,67.30
2023-03-11T21:22:55.963Z,68.20
2023-03-11T21:25:22.748Z,68.90
2023-03-11T21:27:49.583Z,69.10
2023-03-11T21:30:16.449Z,68.30
2023-03-11T21:32:44.880Z,67.70
2023-03-11T21:35:11.607Z,67.30
2023-03-11T21:37:38.576Z,68.00
2023-03-11T21:40:07.453Z,67.40
2023-03-11T21:42:34.514Z,66.90
2023-03-11T21:45:01.327Z,66.70
2023-03-11T21:47:28.223Z,66.40
2023-03-11T21:49:56.575Z,66.50
2023-03-11T21:52:23.456Z,66.30
2023-03-11T21:54:50.223Z,66.20
2023-03-11T21:57:16.941Z,67.10
2023-03-11T21:59:44.874Z,68.40
2023-03-11T22:02:14.364Z,68.70
2023-03-11T22:04:41.816Z,69.70
2023-03-11T22:07:09.360Z,69.20
2023-03-11T22:09:36.838Z,69.20
2023-03-11T22:12:03.562Z,68.80
2023-03-11T22:14:30.478Z,68.70
2023-03-11T22:16:57.376Z,68.50
2023-03-11T22:19:24.314Z,68.90
2023-03-11T22:21:50.958Z,68.70
2023-03-11T22:24:17.884Z,69.70
2023-03-11T22:26:44.465Z,69.20
2023-03-11T22:29:13.568Z,69.20
2023-03-11T22:31:41.470Z,70.00
2023-03-11T22:34:08.333Z,70.50
2023-03-11T22:36:35.014Z,70.10
2023-03-11T22:39:04.461Z,70.30
2023-03-11T22:41:31.749Z,70.60
2023-03-11T22:43:58.557Z,70.50
2023-03-11T22:46:25.973Z,70.40
2023-03-11T22:48:52.659Z,70.70
2023-03-11T22:51:19.442Z,71.20
2023-03-11T22:53:46.269Z,71.00
2023-03-11T22:56:13.706Z,71.20
2023-03-11T22:58:40.977Z,71.30
2023-03-11T23:01:08.704Z,72.10
2023-03-11T23:03:37.893Z,72.10
2023-03-11T23:06:06.513Z,71.60
2023-03-11T23:08:33.681Z,71.60
2023-03-11T23:11:04.497Z,71.50
2023-03-11T23:13:31.641Z,71.60
2023-03-11T23:16:03.057Z,72.00
2023-03-11T23:18:29.709Z,72.20
2023-03-11T23:20:56.390Z,72.40
2023-03-11T23:23:25.287Z,72.80
2023-03-11T23:25:52.220Z,73.50
2023-03-11T23:28:19.799Z,73.20
2023-03-11T23:30:46.706Z,73.70
2023-03-11T23:33:13.316Z,73.60
2023-03-11T23:35:41.991Z,73.50
2023-03-11T23:38:09.188Z,73.60
2023-03-11T23:40:36.068Z,73.70
2023-03-11T23:43:02.965Z,73.70
2023-03-11T23:45:29.542Z,73.60
2023-03-11T23:47:56.131Z,73.90
2023-03-11T23:50:22.706Z,74.90
2023-03-11T23:52:51.589Z,74.00
2023-03-11T23:55:18.282Z,73.50
2023-03-11T23:57:44.967Z,73.10
